createdAt,value
2023-02-11T00:04:19.421Z,102367.38
2023-02-11T00:09:22.878Z,102339.22
2023-02-11T00:14:27.741Z,102352.91
2023-02-11T00:19:31.139Z,102364.22
2023-02-11T00:24:34.610Z,102365.50
2023-02-11T00:29:39.877Z,102366.56
2023-02-11T00:34:43.333Z,102371.03
2023-02-11T00:39:47.098Z,102357.28
2023-02-11T00:44:51.888Z,102366.50
2023-02-11T00:49:55.336Z,102385.28
2023-02-11T00:54:59.096Z,102381.09
2023-02-11T01:00:04.082Z,102387.00
2023-02-11T01:05:08.265Z,102388.88
2023-02-11T01:10:11.972Z,102391.56
2023-02-11T01:15:19.048Z,102376.75
2023-02-11T01:20:24.886Z,102367.69
2023-02-11T01:25:28.425Z,102370.00
2023-02-11T01:30:33.232Z,102357.81
2023-02-11T01:35:36.650Z,102348.13
2023-02-11T01:40:40.075Z,102335.19
2023-02-11T01:46:28.987Z,102335.88
2023-02-11T01:51:36.176Z,102312.78
2023-02-11T01:57:01.271Z,102293.00
2023-02-11T02:02:08.176Z,102274.78
2023-02-11T02:07:19.096Z,102279.03
2023-02-11T02:12:22.472Z,102274.31
2023-02-11T02:17:32.056Z,102265.47
2023-02-11T02:23:24.891Z,102261.94
2023-02-11T02:28:47.173Z,102270.06
2023-02-11T02:33:55.754Z,102276.63
2023-02-11T02:39:02.684Z,102270.06
2023-02-11T02:44:07.366Z,102266.41
2023-02-11T02:49:14.447Z,102259.81
2023-02-11T02:54:36.869Z,102248.00
2023-02-11T02:59:50.047Z,102238.59
2023-02-11T03:04:59.049Z,102257.63
2023-02-11T03:10:06.409Z,102248.16
2023-02-11T03:15:10.672Z,102248.31
2023-02-11T03:20:18.723Z,102228.69
2023-02-11T03:25:23.907Z,102239.88
2023-02-11T03:30:31.341Z,102230.63
2023-02-11T03:35:41.895Z,102218.94
2023-02-11T03:40:46.443Z,102209.13
2023-02-11T03:45:52.483Z,102209.78
2023-02-11T03:50:59.406Z,102226.63
2023-02-11T03:56:06.721Z,102224.72
2023-02-11T04:01:10.412Z,102227.69
2023-02-11T04:06:15.175Z,102217.84
2023-02-11T04:11:18.512Z,102229.75
2023-02-11T04:16:22.062Z,102233.25
2023-02-11T04:21:26.792Z,102232.56
2023-02-11T04:26:30.135Z,102238.59
2023-02-11T04:31:33.555Z,102230.81
2023-02-11T04:36:38.361Z,102233.06
2023-02-11T04:41:41.721Z,102233.88
2023-02-11T04:46:45.179Z,102234.75
2023-02-11T04:51:51.178Z,102241.44
2023-02-11T04:56:54.550Z,102245.13
2023-02-11T05:01:58.043Z,102243.84
2023-02-11T05:07:02.810Z,102230.94
2023-02-11T05:12:06.453Z,102221.47
2023-02-11T05:17:09.900Z,102210.94
2023-02-11T05:22:14.587Z,102207.53
2023-02-11T05:27:17.942Z,102223.47
2023-02-11T05:32:21.365Z,102233.84
2023-02-11T05:37:26.121Z,102230.94
2023-02-11T05:42:29.507Z,102217.00
2023-02-11T05:47:32.970Z,102215.09
2023-02-11T05:52:37.744Z,102208.84
2023-02-11T05:57:41.312Z,102224.25
2023-02-11T06:02:44.894Z,102220.56
2023-02-11T06:07:49.643Z,102215.47
2023-02-11T06:12:52.969Z,102211.09
2023-02-11T06:17:56.745Z,102211.31
2023-02-11T06:23:01.461Z,102210.50
2023-02-11T06:28:05.090Z,102214.72
2023-02-11T06:33:08.543Z,102207.72
2023-02-11T06:38:13.269Z,102219.66
2023-02-11T06:43:16.730Z,102222.47
2023-02-11T06:48:20.174Z,102219.75
2023-02-11T06:53:25.222Z,102223.72
2023-02-11T06:58:28.656Z,102227.81
2023-02-11T07:03:32.140Z,102225.53
2023-02-11T07:08:38.346Z,102225.91
2023-02-11T07:13:41.746Z,102217.75
2023-02-11T07:18:45.794Z,102225.41
2023-02-11T07:23:50.623Z,102238.56
2023-02-11T07:28:54.287Z,102248.06
2023-02-11T07:33:59.808Z,102241.06
2023-02-11T07:39:05.014Z,102241.50
2023-02-11T07:44:08.475Z,102250.63
2023-02-11T07:49:12.149Z,102235.53
2023-02-11T07:54:16.835Z,102251.50
2023-02-11T07:59:20.183Z,102250.13
2023-02-11T08:04:23.780Z,102258.53
2023-02-11T08:09:28.606Z,102245.72
2023-02-11T08:14:32.696Z,102242.22
2023-02-11T08:19:36.189Z,102238.78
2023-02-11T08:24:40.971Z,102233.56
2023-02-11T08:29:44.335Z,102240.19
2023-02-11T08:34:47.742Z,102243.06
2023-02-11T08:39:52.515Z,102260.91
2023-02-11T08:44:55.936Z,102271.97
2023-02-11T08:49:59.329Z,102277.00
2023-02-11T08:55:04.654Z,102273.22
2023-02-11T09:00:11.056Z,102281.19
2023-02-11T09:05:14.600Z,102284.69
2023-02-11T09:10:19.641Z,102297.84
2023-02-11T09:15:23.040Z,102291.53
2023-02-11T09:20:27.395Z,102282.75
2023-02-11T09:25:32.092Z,102287.22
2023-02-11T09:30:36.802Z,102293.50
2023-02-11T09:35:40.365Z,102307.75
2023-02-11T09:40:46.165Z,102307.00
2023-02-11T09:45:49.971Z,102321.69
2023-02-11T09:50:56.086Z,102325.63
2023-02-11T09:56:04.461Z,102340.16
2023-02-11T10:01:13.897Z,102358.91
2023-02-11T10:06:31.359Z,102350.41
2023-02-11T10:11:43.152Z,102350.84
2023-02-11T10:16:54.528Z,102355.78
2023-02-11T10:22:03.232Z,102359.91
2023-02-11T10:27:15.931Z,102353.38
2023-02-11T10:32:30.011Z,102339.84
2023-02-11T10:37:33.524Z,102346.66
2023-02-11T10:42:38.429Z,102368.31
2023-02-11T10:47:42.298Z,102361.09
2023-02-11T10:52:45.744Z,102372.50
2023-02-11T10:57:57.541Z,102362.75
2023-02-11T11:03:01.998Z,102360.31
2023-02-11T11:08:07.092Z,102368.59
2023-02-11T11:13:27.651Z,102357.91
2023-02-11T11:18:31.228Z,102370.81
2023-02-11T11:23:36.891Z,102361.41
2023-02-11T11:28:44.275Z,102367.78
2023-02-11T11:33:48.577Z,102373.41
2023-02-11T11:38:56.552Z,102377.66
2023-02-11T11:44:04.375Z,102376.72
2023-02-11T11:49:14.872Z,102376.47
2023-02-11T11:54:19.982Z,102381.78
2023-02-11T11:59:24.774Z,102371.53
2023-02-11T12:04:42.796Z,102356.19
2023-02-11T12:10:05.610Z,102361.63
2023-02-11T12:15:22.264Z,102371.94
2023-02-11T12:20:33.861Z,102362.88
2023-02-11T12:25:41.471Z,102363.97
2023-02-11T12:31:12.923Z,102355.72
2023-02-11T12:36:22.328Z,102371.72
2023-02-11T12:41:52.096Z,102384.31
2023-02-11T12:46:59.410Z,102390.94
2023-02-11T12:52:13.433Z,102380.22
2023-02-11T12:57:19.652Z,102366.31
2023-02-11T13:02:30.528Z,102378.53
2023-02-11T13:07:38.110Z,102364.28
2023-02-11T13:13:02.765Z,102373.59
2023-02-11T13:18:19.087Z,102380.53
2023-02-11T13:23:28.117Z,102376.94
2023-02-11T13:28:42.570Z,102375.22
2023-02-11T13:33:49.758Z,102381.03
2023-02-11T13:39:04.621Z,102392.97
2023-02-11T13:44:22.442Z,102368.25
2023-02-11T13:49:32.078Z,102384.75
2023-02-11T13:54:37.100Z,102390.84
2023-02-11T13:59:48.402Z,102397.47
2023-02-11T14:05:40.020Z,102390.69
2023-02-11T14:10:51.764Z,102397.22
2023-02-11T14:16:09.291Z,102399.50
2023-02-11T14:21:16.951Z,102403.50
2023-02-11T14:26:32.324Z,102396.06
2023-02-11T14:31:39.986Z,102386.63
2023-02-11T14:36:55.779Z,102404.44
2023-02-11T14:42:01.794Z,102406.63
2023-02-11T14:47:05.252Z,102412.06
2023-02-11T14:52:26.860Z,102416.16
2023-02-11T14:57:30.673Z,102419.97
2023-02-11T15:02:36.853Z,102410.63
2023-02-11T15:07:46.712Z,102430.69
2023-02-11T15:12:50.479Z,102439.66
2023-02-11T15:17:54.179Z,102449.88
2023-02-11T15:23:01.242Z,102443.31
2023-02-11T15:28:17.015Z,102458.44
2023-02-11T15:33:25.241Z,102463.09
2023-02-11T15:38:30.777Z,102464.19
2023-02-11T15:43:44.825Z,102465.66
2023-02-11T15:48:50.208Z,102471.53
2023-02-11T15:53:58.441Z,102463.41
2023-02-11T15:59:11.890Z,102464.13
2023-02-11T16:04:18.101Z,102454.59
2023-02-11T16:09:32.793Z,102452.69
2023-02-11T16:14:39.116Z,102460.13
2023-02-11T16:19:44.922Z,102450.38
2023-02-11T16:24:50.987Z,102458.31
2023-02-11T16:29:54.375Z,102466.00
2023-02-11T16:34:59.283Z,102456.06
2023-02-11T16:40:04.001Z,102461.13
2023-02-11T16:45:07.869Z,102466.31
2023-02-11T16:50:12.897Z,102465.38
2023-02-11T16:55:17.881Z,102479.72
2023-02-11T17:00:22.625Z,102484.44
2023-02-11T17:05:26.866Z,102483.81
2023-02-11T17:10:32.397Z,102482.88
2023-02-11T17:15:35.962Z,102504.53
2023-02-11T17:20:39.464Z,102498.41
2023-02-11T17:25:44.317Z,102496.31
2023-02-11T17:30:47.729Z,102500.66
2023-02-11T17:35:51.645Z,102518.00
2023-02-11T17:41:00.252Z,102512.38
2023-02-11T17:46:07.228Z,102522.50
2023-02-11T17:51:22.403Z,102531.25
2023-02-11T17:56:27.288Z,102549.38
2023-02-11T18:01:31.577Z,102529.81
2023-02-11T18:06:35.496Z,102532.53
2023-02-11T18:11:41.518Z,102561.13
2023-02-11T18:16:45.834Z,102546.47
2023-02-11T18:21:50.882Z,102568.84
2023-02-11T18:26:55.671Z,102557.34
2023-02-11T18:31:59.478Z,102567.78
2023-02-11T18:37:02.920Z,102575.91
2023-02-11T18:42:07.788Z,102582.34
2023-02-11T18:47:11.196Z,102591.53
2023-02-11T18:52:14.623Z,102583.34
2023-02-11T18:57:19.384Z,102574.59
2023-02-11T19:02:24.740Z,102586.00
2023-02-11T19:07:28.172Z,102582.75
2023-02-11T19:12:33.129Z,102580.78
2023-02-11T19:17:36.580Z,102598.91
2023-02-11T19:22:40.013Z,102599.69
2023-02-11T19:27:44.849Z,102597.19
2023-02-11T19:32:52.334Z,102597.03
2023-02-11T19:37:55.732Z,102609.19
2023-02-11T19:43:00.507Z,102616.41
2023-02-11T19:48:03.922Z,102621.06
2023-02-11T19:53:07.382Z,102618.38
2023-02-11T19:58:12.146Z,102626.66
2023-02-11T20:03:15.526Z,102645.19
2023-02-11T20:08:18.879Z,102618.53
2023-02-11T20:13:23.608Z,102639.53
2023-02-11T20:18:27.093Z,102644.75
2023-02-11T20:23:30.557Z,102638.16
2023-02-11T20:28:35.506Z,102645.47
2023-02-11T20:33:39.831Z,102648.00
2023-02-11T20:38:43.796Z,102635.72
2023-02-11T20:43:51.799Z,102641.06
2023-02-11T20:48:56.212Z,102648.78
2023-02-11T20:54:00.791Z,102650.88
2023-02-11T20:59:06.301Z,102673.13
2023-02-11T21:04:12.736Z,102682.44
2023-02-11T21:09:17.579Z,102683.59
2023-02-11T21:14:23.915Z,102693.63
2023-02-11T21:19:27.627Z,102703.03
2023-02-11T21:24:31.719Z,102710.06
2023-02-11T21:29:45.754Z,102704.50
2023-02-11T21:34:56.410Z,102711.66
2023-02-11T21:39:59.768Z,102712.56
2023-02-11T21:45:04.827Z,102731.03
2023-02-11T21:50:08.855Z,102736.41
2023-02-11T21:55:12.582Z,102744.75
2023-02-11T22:00:20.237Z,102751.94
2023-02-11T22:05:24.032Z,102749.56
2023-02-11T22:10:27.399Z,102748.44
2023-02-11T22:15:32.165Z,102760.63
2023-02-11T22:20:35.548Z,102754.72
2023-02-11T22:25:38.926Z,102775.03
2023-02-11T22:30:43.726Z,102773.75
2023-02-11T22:35:47.145Z,102771.75
2023-02-11T22:40:50.670Z,102783.31
2023-02-11T22:45:56.559Z,102784.31
2023-02-11T22:51:05.137Z,102782.88
2023-02-11T22:56:15.051Z,102789.63
2023-02-11T23:01:20.916Z,102801.72
2023-02-11T23:06:24.434Z,102793.31
2023-02-11T23:11:30.259Z,102791.81
2023-02-11T23:16:35.757Z,102809.66
2023-02-11T23:21:40.499Z,102811.59
2023-02-11T23:26:45.206Z,102824.31
2023-02-11T23:31:50.656Z,102817.38
2023-02-11T23:36:54.207Z,102831.44
2023-02-11T23:41:59.484Z,102827.13
2023-02-11T23:47:04.405Z,102824.41
2023-02-11T23:52:07.894Z,102826.22
2023-02-11T23:57:12.343Z,102837.00
